sensor_id;sensor_type;location;lat;lon;timestamp;P1;durP1;ratioP1;P2;durP2;ratioP2
69260;SDS011;56378;52.404;20.816;2022-10-20T00:01:16;9.37;;;4.10;;
69260;SDS011;56378;52.404;20.816;2022-10-20T00:03:44;7.68;;;3.53;;
69260;SDS011;56378;52.404;20.816;2022-10-20T00:06:11;8.65;;;3.38;;
69260;SDS011;56378;52.404;20.816;2022-10-20T00:08:40;8.50;;;3.47;;
69260;SDS011;56378;52.404;20.816;2022-10-20T00:11:07;9.52;;;3.60;;
69260;SDS011;56378;52.404;20.816;2022-10-20T00:13:34;8.83;;;3.40;;
69260;SDS011;56378;52.404;20.816;2022-10-20T00:16:00;9.57;;;3.38;;
69260;SDS011;56378;52.404;20.816;2022-10-20T00:18:26;6.43;;;3.10;;
69260;SDS011;56378;52.404;20.816;2022-10-20T00:20:52;10.13;;;3.47;;
69260;SDS011;56378;52.404;20.816;2022-10-20T00:23:18;8.00;;;3.47;;
69260;SDS011;56378;52.404;20.816;2022-10-20T00:25:44;9.45;;;4.03;;
69260;SDS011;56378;52.404;20.816;2022-10-20T00:28:10;7.77;;;3.30;;
69260;SDS011;56378;52.404;20.816;2022-10-20T00:30:36;9.40;;;3.95;;
69260;SDS011;56378;52.404;20.816;2022-10-20T00:33:12;8.98;;;3.33;;
69260;SDS011;56378;52.404;20.816;2022-10-20T00:35:37;9.85;;;3.80;;
69260;SDS011;56378;52.404;20.816;2022-10-20T00:38:03;8.10;;;3.40;;
69260;SDS011;56378;52.404;20.816;2022-10-20T00:40:29;10.02;;;4.13;;
69260;SDS011;56378;52.404;20.816;2022-10-20T00:42:54;9.57;;;3.57;;
69260;SDS011;56378;52.404;20.816;2022-10-20T00:45:20;9.53;;;3.73;;
69260;SDS011;56378;52.404;20.816;2022-10-20T00:47:47;10.13;;;4.32;;
69260;SDS011;56378;52.404;20.816;2022-10-20T00:50:18;10.70;;;4.03;;
69260;SDS011;56378;52.404;20.816;2022-10-20T00:52:47;11.27;;;4.10;;
69260;SDS011;56378;52.404;20.816;2022-10-20T00:55:33;8.98;;;3.67;;
69260;SDS011;56378;52.404;20.816;2022-10-20T00:58:02;9.47;;;3.80;;
69260;SDS011;56378;52.404;20.816;2022-10-20T01:00:28;9.73;;;3.80;;
69260;SDS011;56378;52.404;20.816;2022-10-20T01:03:02;9.98;;;3.97;;
69260;SDS011;56378;52.404;20.816;2022-10-20T01:05:29;9.90;;;4.00;;
69260;SDS011;56378;52.404;20.816;2022-10-20T01:07:55;10.33;;;4.30;;
69260;SDS011;56378;52.404;20.816;2022-10-20T01:10:21;9.80;;;3.83;;
69260;SDS011;56378;52.404;20.816;2022-10-20T01:15:34;9.80;;;3.90;;
69260;SDS011;56378;52.404;20.816;2022-10-20T01:21:00;11.73;;;4.32;;
69260;SDS011;56378;52.404;20.816;2022-10-20T01:23:41;11.45;;;4.13;;
69260;SDS011;56378;52.404;20.816;2022-10-20T01:31:52;9.10;;;3.92;;
69260;SDS011;56378;52.404;20.816;2022-10-20T01:34:52;12.37;;;3.87;;
69260;SDS011;56378;52.404;20.816;2022-10-20T01:38:03;10.40;;;4.00;;
69260;SDS011;56378;52.404;20.816;2022-10-20T01:40:32;9.98;;;3.78;;
69260;SDS011;56378;52.404;20.816;2022-10-20T01:43:03;10.10;;;3.70;;
69260;SDS011;56378;52.404;20.816;2022-10-20T01:45:34;10.82;;;3.67;;
69260;SDS011;56378;52.404;20.816;2022-10-20T01:48:04;10.50;;;3.43;;
69260;SDS011;56378;52.404;20.816;2022-10-20T01:50:34;9.45;;;3.45;;
69260;SDS011;56378;52.404;20.816;2022-10-20T01:53:02;8.68;;;3.42;;
69260;SDS011;56378;52.404;20.816;2022-10-20T01:55:28;9.73;;;3.53;;
69260;SDS011;56378;52.404;20.816;2022-10-20T02:00:55;10.63;;;4.13;;
69260;SDS011;56378;52.404;20.816;2022-10-20T02:03:50;7.95;;;3.67;;
69260;SDS011;56378;52.404;20.816;2022-10-20T02:09:07;10.90;;;3.95;;
69260;SDS011;56378;52.404;20.816;2022-10-20T02:11:52;10.65;;;3.50;;
69260;SDS011;56378;52.404;20.816;2022-10-20T02:14:19;10.45;;;3.53;;
69260;SDS011;56378;52.404;20.816;2022-10-20T02:16:48;9.88;;;3.70;;
69260;SDS011;56378;52.404;20.816;2022-10-20T02:19:22;8.98;;;3.70;;
69260;SDS011;56378;52.404;20.816;2022-10-20T02:21:50;9.73;;;4.05;;
69260;SDS011;56378;52.404;20.816;2022-10-20T02:24:18;9.85;;;3.72;;
69260;SDS011;56378;52.404;20.816;2022-10-20T02:26:47;8.15;;;3.25;;
69260;SDS011;56378;52.404;20.816;2022-10-20T02:29:16;11.10;;;4.03;;
69260;SDS011;56378;52.404;20.816;2022-10-20T02:31:46;11.25;;;4.00;;
69260;SDS011;56378;52.404;20.816;2022-10-20T02:34:13;9.25;;;4.00;;
69260;SDS011;56378;52.404;20.816;2022-10-20T02:36:42;8.87;;;3.97;;
69260;SDS011;56378;52.404;20.816;2022-10-20T02:39:08;12.88;;;4.10;;
69260;SDS011;56378;52.404;20.816;2022-10-20T02:41:35;10.50;;;4.00;;
69260;SDS011;56378;52.404;20.816;2022-10-20T02:44:01;12.90;;;4.50;;
69260;SDS011;56378;52.404;20.816;2022-10-20T02:46:27;11.37;;;4.67;;
69260;SDS011;56378;52.404;20.816;2022-10-20T02:48:53;8.70;;;3.95;;
69260;SDS011;56378;52.404;20.816;2022-10-20T02:51:18;10.52;;;3.90;;
69260;SDS011;56378;52.404;20.816;2022-10-20T02:53:44;11.90;;;4.63;;
69260;SDS011;56378;52.404;20.816;2022-10-20T02:56:10;11.63;;;4.35;;
69260;SDS011;56378;52.404;20.816;2022-10-20T02:58:36;13.03;;;4.47;;
69260;SDS011;56378;52.404;20.816;2022-10-20T03:01:02;11.38;;;4.25;;
69260;SDS011;56378;52.404;20.816;2022-10-20T03:03:28;9.65;;;3.97;;
69260;SDS011;56378;52.404;20.816;2022-10-20T03:05:54;11.10;;;3.90;;
69260;SDS011;56378;52.404;20.816;2022-10-20T03:08:19;9.25;;;4.40;;
69260;SDS011;56378;52.404;20.816;2022-10-20T03:10:45;12.95;;;4.30;;
69260;SDS011;56378;52.404;20.816;2022-10-20T03:13:11;9.60;;;4.17;;
69260;SDS011;56378;52.404;20.816;2022-10-20T03:15:38;10.88;;;4.25;;
69260;SDS011;56378;52.404;20.816;2022-10-20T03:18:04;10.47;;;4.43;;
69260;SDS011;56378;52.404;20.816;2022-10-20T03:20:30;12.98;;;4.50;;
69260;SDS011;56378;52.404;20.816;2022-10-20T03:22:56;9.15;;;4.13;;
69260;SDS011;56378;52.404;20.816;2022-10-20T03:25:22;17.43;;;4.40;;
69260;SDS011;56378;52.404;20.816;2022-10-20T03:27:47;13.93;;;4.63;;
69260;SDS011;56378;52.404;20.816;2022-10-20T03:30:13;12.47;;;4.70;;
69260;SDS011;56378;52.404;20.816;2022-10-20T03:32:40;11.37;;;4.23;;
69260;SDS011;56378;52.404;20.816;2022-10-20T03:35:06;9.70;;;4.22;;
69260;SDS011;56378;52.404;20.816;2022-10-20T03:37:31;13.07;;;4.97;;
69260;SDS011;56378;52.404;20.816;2022-10-20T03:39:57;11.90;;;4.97;;
69260;SDS011;56378;52.404;20.816;2022-10-20T03:42:23;9.98;;;4.30;;
69260;SDS011;56378;52.404;20.816;2022-10-20T03:44:48;10.93;;;4.30;;
69260;SDS011;56378;52.404;20.816;2022-10-20T03:47:14;12.07;;;4.65;;
69260;SDS011;56378;52.404;20.816;2022-10-20T03:49:40;8.93;;;4.53;;
69260;SDS011;56378;52.404;20.816;2022-10-20T03:52:05;13.88;;;4.65;;
69260;SDS011;56378;52.404;20.816;2022-10-20T03:54:31;10.17;;;4.20;;
69260;SDS011;56378;52.404;20.816;2022-10-20T03:56:58;10.50;;;4.43;;
69260;SDS011;56378;52.404;20.816;2022-10-20T03:59:24;12.47;;;4.60;;
69260;SDS011;56378;52.404;20.816;2022-10-20T04:01:50;10.27;;;4.60;;
69260;SDS011;56378;52.404;20.816;2022-10-20T04:04:15;10.87;;;4.27;;
69260;SDS011;56378;52.404;20.816;2022-10-20T04:06:41;9.88;;;4.38;;
69260;SDS011;56378;52.404;20.816;2022-10-20T04:09:07;9.80;;;4.37;;
69260;SDS011;56378;52.404;20.816;2022-10-20T04:11:32;11.20;;;4.20;;
69260;SDS011;56378;52.404;20.816;2022-10-20T04:13:58;13.60;;;4.73;;
69260;SDS011;56378;52.404;20.816;2022-10-20T04:16:24;10.80;;;5.03;;
69260;SDS011;56378;52.404;20.816;2022-10-20T04:18:53;10.40;;;4.95;;
69260;SDS011;56378;52.404;20.816;2022-10-20T04:21:19;12.32;;;5.13;;
69260;SDS011;56378;52.404;20.816;2022-10-20T04:23:45;13.53;;;5.93;;
69260;SDS011;56378;52.404;20.816;2022-10-20T04:26:11;12.45;;;5.70;;
69260;SDS011;56378;52.404;20.816;2022-10-20T04:28:38;15.27;;;6.47;;
69260;SDS011;56378;52.404;20.816;2022-10-20T04:31:11;15.57;;;6.13;;
69260;SDS011;56378;52.404;20.816;2022-10-20T04:33:36;19.13;;;6.90;;
69260;SDS011;56378;52.404;20.816;2022-10-20T04:36:04;14.23;;;5.80;;
69260;SDS011;56378;52.404;20.816;2022-10-20T04:38:32;18.30;;;6.82;;
69260;SDS011;56378;52.404;20.816;2022-10-20T04:40:59;24.58;;;7.88;;
69260;SDS011;56378;52.404;20.816;2022-10-20T04:43:28;42.53;;;8.73;;
69260;SDS011;56378;52.404;20.816;2022-10-20T04:45:58;28.15;;;7.30;;
69260;SDS011;56378;52.404;20.816;2022-10-20T04:48:24;21.60;;;7.85;;
69260;SDS011;56378;52.404;20.816;2022-10-20T04:51:02;22.20;;;7.53;;
69260;SDS011;56378;52.404;20.816;2022-10-20T04:53:32;45.45;;;8.20;;
69260;SDS011;56378;52.404;20.816;2022-10-20T04:55:58;26.85;;;7.35;;
69260;SDS011;56378;52.404;20.816;2022-10-20T04:58:24;41.15;;;8.15;;
69260;SDS011;56378;52.404;20.816;2022-10-20T05:00:50;30.92;;;8.50;;
69260;SDS011;56378;52.404;20.816;2022-10-20T05:03:16;39.90;;;8.73;;
69260;SDS011;56378;52.404;20.816;2022-10-20T05:05:46;46.92;;;8.85;;
69260;SDS011;56378;52.404;20.816;2022-10-20T05:08:12;47.10;;;9.30;;
69260;SDS011;56378;52.404;20.816;2022-10-20T05:10:38;53.13;;;12.95;;
69260;SDS011;56378;52.404;20.816;2022-10-20T05:13:04;49.60;;;13.93;;
69260;SDS011;56378;52.404;20.816;2022-10-20T05:15:29;40.83;;;12.63;;
69260;SDS011;56378;52.404;20.816;2022-10-20T05:17:56;54.00;;;13.13;;
69260;SDS011;56378;52.404;20.816;2022-10-20T05:20:22;44.00;;;12.55;;
69260;SDS011;56378;52.404;20.816;2022-10-20T05:22:48;61.70;;;12.90;;
69260;SDS011;56378;52.404;20.816;2022-10-20T05:25:13;53.55;;;12.50;;
69260;SDS011;56378;52.404;20.816;2022-10-20T05:27:39;62.67;;;14.67;;
69260;SDS011;56378;52.404;20.816;2022-10-20T05:30:05;58.50;;;13.00;;
69260;SDS011;56378;52.404;20.816;2022-10-20T05:32:31;74.90;;;14.05;;
69260;SDS011;56378;52.404;20.816;2022-10-20T05:34:57;55.30;;;13.97;;
69260;SDS011;56378;52.404;20.816;2022-10-20T05:37:23;80.50;;;13.85;;
69260;SDS011;56378;52.404;20.816;2022-10-20T05:39:49;62.88;;;13.05;;
69260;SDS011;56378;52.404;20.816;2022-10-20T05:42:14;75.95;;;12.55;;
69260;SDS011;56378;52.404;20.816;2022-10-20T05:44:40;80.93;;;13.93;;
69260;SDS011;56378;52.404;20.816;2022-10-20T05:47:06;129.75;;;13.57;;
69260;SDS011;56378;52.404;20.816;2022-10-20T05:49:31;90.43;;;13.17;;
69260;SDS011;56378;52.404;20.816;2022-10-20T05:51:57;82.50;;;11.50;;
69260;SDS011;56378;52.404;20.816;2022-10-20T05:54:23;70.85;;;10.95;;
69260;SDS011;56378;52.404;20.816;2022-10-20T05:56:48;107.97;;;11.00;;
69260;SDS011;56378;52.404;20.816;2022-10-20T05:59:14;94.28;;;12.75;;
69260;SDS011;56378;52.404;20.816;2022-10-20T06:01:40;66.03;;;14.23;;
69260;SDS011;56378;52.404;20.816;2022-10-20T06:04:18;116.55;;;14.68;;
69260;SDS011;56378;52.404;20.816;2022-10-20T06:06:47;80.88;;;12.48;;
69260;SDS011;56378;52.404;20.816;2022-10-20T06:09:14;70.65;;;12.10;;
69260;SDS011;56378;52.404;20.816;2022-10-20T06:11:40;131.35;;;13.00;;
69260;SDS011;56378;52.404;20.816;2022-10-20T06:14:06;153.60;;;13.23;;
69260;SDS011;56378;52.404;20.816;2022-10-20T06:16:33;172.80;;;12.13;;
69260;SDS011;56378;52.404;20.816;2022-10-20T06:18:59;91.93;;;11.35;;
69260;SDS011;56378;52.404;20.816;2022-10-20T06:21:26;126.43;;;11.23;;
69260;SDS011;56378;52.404;20.816;2022-10-20T06:23:53;138.25;;;10.43;;
69260;SDS011;56378;52.404;20.816;2022-10-20T06:26:22;153.73;;;11.38;;
69260;SDS011;56378;52.404;20.816;2022-10-20T06:28:52;152.48;;;10.65;;
69260;SDS011;56378;52.404;20.816;2022-10-20T06:31:22;94.33;;;9.53;;
69260;SDS011;56378;52.404;20.816;2022-10-20T06:33:51;133.60;;;12.88;;
69260;SDS011;56378;52.404;20.816;2022-10-20T06:36:18;111.00;;;12.57;;
69260;SDS011;56378;52.404;20.816;2022-10-20T06:38:45;116.35;;;14.95;;
69260;SDS011;56378;52.404;20.816;2022-10-20T06:41:12;45.28;;;14.90;;
69260;SDS011;56378;52.404;20.816;2022-10-20T06:43:40;127.90;;;9.70;;
69260;SDS011;56378;52.404;20.816;2022-10-20T06:46:07;63.80;;;8.93;;
69260;SDS011;56378;52.404;20.816;2022-10-20T06:48:35;109.38;;;14.77;;
69260;SDS011;56378;52.404;20.816;2022-10-20T06:51:03;62.22;;;12.75;;
69260;SDS011;56378;52.404;20.816;2022-10-20T06:53:30;80.60;;;10.07;;
69260;SDS011;56378;52.404;20.816;2022-10-20T06:56:02;28.83;;;9.52;;
69260;SDS011;56378;52.404;20.816;2022-10-20T06:58:38;40.35;;;9.82;;
69260;SDS011;56378;52.404;20.816;2022-10-20T07:01:13;74.63;;;11.20;;
69260;SDS011;56378;52.404;20.816;2022-10-20T07:03:41;62.30;;;11.20;;
69260;SDS011;56378;52.404;20.816;2022-10-20T07:06:09;48.17;;;13.20;;
69260;SDS011;56378;52.404;20.816;2022-10-20T07:08:41;60.97;;;12.07;;
69260;SDS011;56378;52.404;20.816;2022-10-20T07:11:11;20.05;;;8.60;;
69260;SDS011;56378;52.404;20.816;2022-10-20T07:13:47;20.40;;;7.80;;
69260;SDS011;56378;52.404;20.816;2022-10-20T07:16:15;15.07;;;7.03;;
69260;SDS011;56378;52.404;20.816;2022-10-20T07:18:45;24.55;;;7.65;;
69260;SDS011;56378;52.404;20.816;2022-10-20T07:21:12;20.23;;;8.18;;
69260;SDS011;56378;52.404;20.816;2022-10-20T07:23:43;21.20;;;8.02;;
69260;SDS011;56378;52.404;20.816;2022-10-20T07:26:11;22.25;;;8.55;;
69260;SDS011;56378;52.404;20.816;2022-10-20T07:28:40;19.93;;;9.07;;
69260;SDS011;56378;52.404;20.816;2022-10-20T07:31:08;20.02;;;9.30;;
69260;SDS011;56378;52.404;20.816;2022-10-20T07:33:39;21.63;;;9.68;;
69260;SDS011;56378;52.404;20.816;2022-10-20T07:36:15;17.60;;;9.00;;
69260;SDS011;56378;52.404;20.816;2022-10-20T07:38:43;22.85;;;10.07;;
69260;SDS011;56378;52.404;20.816;2022-10-20T07:41:09;21.23;;;9.30;;
69260;SDS011;56378;52.404;20.816;2022-10-20T07:43:36;20.60;;;9.23;;
69260;SDS011;56378;52.404;20.816;2022-10-20T07:46:03;19.85;;;9.75;;
69260;SDS011;56378;52.404;20.816;2022-10-20T07:48:29;19.55;;;9.10;;
69260;SDS011;56378;52.404;20.816;2022-10-20T07:51:11;21.77;;;8.82;;
69260;SDS011;56378;52.404;20.816;2022-10-20T07:53:38;18.60;;;8.77;;
69260;SDS011;56378;52.404;20.816;2022-10-20T07:56:04;18.33;;;8.35;;
69260;SDS011;56378;52.404;20.816;2022-10-20T07:58:30;18.98;;;7.78;;
69260;SDS011;56378;52.404;20.816;2022-10-20T08:00:56;18.83;;;8.80;;
69260;SDS011;56378;52.404;20.816;2022-10-20T08:03:21;17.08;;;8.57;;
69260;SDS011;56378;52.404;20.816;2022-10-20T08:05:47;19.37;;;8.13;;
69260;SDS011;56378;52.404;20.816;2022-10-20T08:08:12;17.60;;;8.13;;
69260;SDS011;56378;52.404;20.816;2022-10-20T08:10:38;20.25;;;8.80;;
69260;SDS011;56378;52.404;20.816;2022-10-20T08:13:04;17.13;;;8.30;;
69260;SDS011;56378;52.404;20.816;2022-10-20T08:15:29;16.05;;;7.95;;
69260;SDS011;56378;52.404;20.816;2022-10-20T08:17:55;17.90;;;7.97;;
69260;SDS011;56378;52.404;20.816;2022-10-20T08:20:21;16.80;;;8.15;;
69260;SDS011;56378;52.404;20.816;2022-10-20T08:22:47;15.63;;;7.63;;
69260;SDS011;56378;52.404;20.816;2022-10-20T08:25:12;15.32;;;7.38;;
69260;SDS011;56378;52.404;20.816;2022-10-20T08:27:41;15.45;;;8.27;;
69260;SDS011;56378;52.404;20.816;2022-10-20T08:30:07;16.57;;;8.87;;
69260;SDS011;56378;52.404;20.816;2022-10-20T08:32:33;17.77;;;8.00;;
69260;SDS011;56378;52.404;20.816;2022-10-20T08:34:59;11.52;;;6.13;;
69260;SDS011;56378;52.404;20.816;2022-10-20T08:37:25;13.33;;;6.43;;
69260;SDS011;56378;52.404;20.816;2022-10-20T08:39:53;14.18;;;6.82;;
69260;SDS011;56378;52.404;20.816;2022-10-20T08:42:18;10.68;;;5.68;;
69260;SDS011;56378;52.404;20.816;2022-10-20T08:44:47;12.23;;;5.93;;
69260;SDS011;56378;52.404;20.816;2022-10-20T08:47:35;12.15;;;6.10;;
69260;SDS011;56378;52.404;20.816;2022-10-20T08:50:04;12.25;;;5.75;;
69260;SDS011;56378;52.404;20.816;2022-10-20T08:52:31;12.43;;;5.70;;
69260;SDS011;56378;52.404;20.816;2022-10-20T08:54:57;11.77;;;5.23;;
69260;SDS011;56378;52.404;20.816;2022-10-20T08:57:24;12.48;;;5.30;;
69260;SDS011;56378;52.404;20.816;2022-10-20T08:59:55;11.90;;;5.25;;
69260;SDS011;56378;52.404;20.816;2022-10-20T09:02:25;12.43;;;5.60;;
69260;SDS011;56378;52.404;20.816;2022-10-20T09:05:02;12.48;;;5.30;;
69260;SDS011;56378;52.404;20.816;2022-10-20T09:07:31;12.70;;;5.57;;
69260;SDS011;56378;52.404;20.816;2022-10-20T09:12:51;10.80;;;4.97;;
69260;SDS011;56378;52.404;20.816;2022-10-20T09:15:18;11.50;;;5.43;;
69260;SDS011;56378;52.404;20.816;2022-10-20T09:17:50;10.23;;;5.10;;
69260;SDS011;56378;52.404;20.816;2022-10-20T09:20:53;9.07;;;4.60;;
69260;SDS011;56378;52.404;20.816;2022-10-20T09:23:23;8.90;;;4.43;;
69260;SDS011;56378;52.404;20.816;2022-10-20T09:25:53;10.38;;;4.30;;
69260;SDS011;56378;52.404;20.816;2022-10-20T09:28:23;9.33;;;4.23;;
69260;SDS011;56378;52.404;20.816;2022-10-20T09:30:50;11.05;;;4.57;;
69260;SDS011;56378;52.404;20.816;2022-10-20T09:36:11;7.35;;;3.40;;
69260;SDS011;56378;52.404;20.816;2022-10-20T09:38:44;7.67;;;3.80;;
69260;SDS011;56378;52.404;20.816;2022-10-20T09:41:13;8.18;;;3.60;;
69260;SDS011;56378;52.404;20.816;2022-10-20T09:43:47;9.07;;;3.47;;
69260;SDS011;56378;52.404;20.816;2022-10-20T09:46:20;6.18;;;3.20;;
69260;SDS011;56378;52.404;20.816;2022-10-20T09:48:50;7.20;;;3.30;;
69260;SDS011;56378;52.404;20.816;2022-10-20T09:51:23;9.80;;;3.90;;
69260;SDS011;56378;52.404;20.816;2022-10-20T09:53:58;6.15;;;2.92;;
69260;SDS011;56378;52.404;20.816;2022-10-20T09:56:28;8.60;;;3.70;;
69260;SDS011;56378;52.404;20.816;2022-10-20T09:58:58;5.85;;;2.70;;
69260;SDS011;56378;52.404;20.816;2022-10-20T10:01:26;6.88;;;3.00;;
69260;SDS011;56378;52.404;20.816;2022-10-20T10:03:53;7.97;;;2.80;;
69260;SDS011;56378;52.404;20.816;2022-10-20T10:06:40;7.10;;;2.70;;
69260;SDS011;56378;52.404;20.816;2022-10-20T10:12:13;8.70;;;2.53;;
69260;SDS011;56378;52.404;20.816;2022-10-20T10:17:48;6.50;;;2.40;;
69260;SDS011;56378;52.404;20.816;2022-10-20T10:22:41;5.60;;;2.30;;
69260;SDS011;56378;52.404;20.816;2022-10-20T10:25:14;4.73;;;1.77;;
69260;SDS011;56378;52.404;20.816;2022-10-20T10:30:31;3.67;;;1.30;;
69260;SDS011;56378;52.404;20.816;2022-10-20T10:33:20;3.85;;;0.90;;
69260;SDS011;56378;52.404;20.816;2022-10-20T10:35:51;3.65;;;1.23;;
69260;SDS011;56378;52.404;20.816;2022-10-20T10:38:17;4.47;;;1.20;;
69260;SDS011;56378;52.404;20.816;2022-10-20T10:46:11;2.83;;;1.10;;
69260;SDS011;56378;52.404;20.816;2022-10-20T10:53:53;0.55;;;0.20;;
69260;SDS011;56378;52.404;20.816;2022-10-20T10:57:23;2.30;;;0.63;;
69260;SDS011;56378;52.404;20.816;2022-10-20T11:00:04;1.43;;;0.67;;
69260;SDS011;56378;52.404;20.816;2022-10-20T11:05:18;1.97;;;0.77;;
69260;SDS011;56378;52.404;20.816;2022-10-20T11:13:16;3.13;;;0.70;;
69260;SDS011;56378;52.404;20.816;2022-10-20T11:15:57;1.48;;;0.52;;
69260;SDS011;56378;52.404;20.816;2022-10-20T11:18:58;2.60;;;0.50;;
69260;SDS011;56378;52.404;20.816;2022-10-20T11:27:10;2.58;;;0.30;;
69260;SDS011;56378;52.404;20.816;2022-10-20T11:29:50;1.27;;;0.40;;
69260;SDS011;56378;52.404;20.816;2022-10-20T11:38:14;1.83;;;0.70;;
69260;SDS011;56378;52.404;20.816;2022-10-20T11:41:04;1.92;;;0.80;;
69260;SDS011;56378;52.404;20.816;2022-10-20T11:43:35;2.95;;;0.80;;
69260;SDS011;56378;52.404;20.816;2022-10-20T11:46:23;2.50;;;0.70;;
69260;SDS011;56378;52.404;20.816;2022-10-20T11:49:08;2.58;;;0.93;;
69260;SDS011;56378;52.404;20.816;2022-10-20T11:59:52;3.83;;;0.80;;
69260;SDS011;56378;52.404;20.816;2022-10-20T12:19:18;1.23;;;0.60;;
69260;SDS011;56378;52.404;20.816;2022-10-20T12:35:06;1.70;;;0.57;;
69260;SDS011;56378;52.404;20.816;2022-10-20T12:37:53;4.38;;;0.60;;
69260;SDS011;56378;52.404;20.816;2022-10-20T12:40:30;1.88;;;0.60;;
69260;SDS011;56378;52.404;20.816;2022-10-20T12:43:04;2.20;;;0.63;;
69260;SDS011;56378;52.404;20.816;2022-10-20T12:45:46;2.85;;;0.60;;
69260;SDS011;56378;52.404;20.816;2022-10-20T12:48:17;1.50;;;0.50;;
69260;SDS011;56378;52.404;20.816;2022-10-20T12:50:46;1.17;;;0.47;;
69260;SDS011;56378;52.404;20.816;2022-10-20T12:53:24;2.58;;;0.50;;
69260;SDS011;56378;52.404;20.816;2022-10-20T13:06:01;3.10;;;0.50;;
69260;SDS011;56378;52.404;20.816;2022-10-20T13:11:58;1.35;;;0.40;;
69260;SDS011;56378;52.404;20.816;2022-10-20T13:14:21;2.67;;;0.80;;
69260;SDS011;56378;52.404;20.816;2022-10-20T13:17:18;2.60;;;0.88;;
69260;SDS011;56378;52.404;20.816;2022-10-20T13:19:59;3.63;;;1.40;;
69260;SDS011;56378;52.404;20.816;2022-10-20T13:22:46;4.83;;;1.60;;
69260;SDS011;56378;52.404;20.816;2022-10-20T13:28:05;6.18;;;1.98;;
69260;SDS011;56378;52.404;20.816;2022-10-20T13:33:43;33.90;;;11.05;;
69260;SDS011;56378;52.404;20.816;2022-10-20T13:36:11;12.80;;;3.97;;
69260;SDS011;56378;52.404;20.816;2022-10-20T13:38:40;6.82;;;2.30;;
69260;SDS011;56378;52.404;20.816;2022-10-20T13:47:11;3.63;;;1.08;;
69260;SDS011;56378;52.404;20.816;2022-10-20T13:49:58;2.97;;;0.97;;
69260;SDS011;56378;52.404;20.816;2022-10-20T13:52:31;3.65;;;1.10;;
69260;SDS011;56378;52.404;20.816;2022-10-20T13:55:02;3.42;;;1.05;;
69260;SDS011;56378;52.404;20.816;2022-10-20T13:57:31;5.07;;;1.30;;
69260;SDS011;56378;52.404;20.816;2022-10-20T14:00:00;3.50;;;1.15;;
69260;SDS011;56378;52.404;20.816;2022-10-20T14:02:30;3.03;;;0.90;;
69260;SDS011;56378;52.404;20.816;2022-10-20T14:05:07;2.60;;;0.88;;
69260;SDS011;56378;52.404;20.816;2022-10-20T14:07:37;2.63;;;1.08;;
69260;SDS011;56378;52.404;20.816;2022-10-20T14:10:04;3.90;;;1.30;;
69260;SDS011;56378;52.404;20.816;2022-10-20T14:12:34;2.97;;;1.00;;
69260;SDS011;56378;52.404;20.816;2022-10-20T14:14:59;6.67;;;2.30;;
69260;SDS011;56378;52.404;20.816;2022-10-20T14:17:27;4.57;;;1.40;;
69260;SDS011;56378;52.404;20.816;2022-10-20T14:22:45;4.10;;;1.10;;
69260;SDS011;56378;52.404;20.816;2022-10-20T14:25:12;7.40;;;2.90;;
69260;SDS011;56378;52.404;20.816;2022-10-20T14:27:39;6.30;;;2.53;;
69260;SDS011;56378;52.404;20.816;2022-10-20T14:30:05;5.20;;;1.75;;
69260;SDS011;56378;52.404;20.816;2022-10-20T14:32:32;3.90;;;1.30;;
69260;SDS011;56378;52.404;20.816;2022-10-20T14:35:14;6.22;;;1.10;;
69260;SDS011;56378;52.404;20.816;2022-10-20T14:38:04;8.13;;;3.15;;
69260;SDS011;56378;52.404;20.816;2022-10-20T14:40:38;6.65;;;1.60;;
69260;SDS011;56378;52.404;20.816;2022-10-20T14:43:06;5.40;;;1.20;;
69260;SDS011;56378;52.404;20.816;2022-10-20T14:45:55;2.87;;;0.90;;
69260;SDS011;56378;52.404;20.816;2022-10-20T14:48:24;3.58;;;1.38;;
69260;SDS011;56378;52.404;20.816;2022-10-20T14:50:59;5.22;;;1.20;;
69260;SDS011;56378;52.404;20.816;2022-10-20T14:53:29;4.10;;;1.17;;
69260;SDS011;56378;52.404;20.816;2022-10-20T14:55:57;2.80;;;1.20;;
69260;SDS011;56378;52.404;20.816;2022-10-20T14:58:30;5.28;;;1.40;;
69260;SDS011;56378;52.404;20.816;2022-10-20T15:09:58;4.70;;;1.00;;
69260;SDS011;56378;52.404;20.816;2022-10-20T15:12:31;4.15;;;1.00;;
69260;SDS011;56378;52.404;20.816;2022-10-20T15:17:38;6.28;;;1.08;;
69260;SDS011;56378;52.404;20.816;2022-10-20T15:23:15;4.03;;;0.90;;
69260;SDS011;56378;52.404;20.816;2022-10-20T15:30:59;4.82;;;0.95;;
69260;SDS011;56378;52.404;20.816;2022-10-20T15:33:26;3.22;;;1.00;;
69260;SDS011;56378;52.404;20.816;2022-10-20T15:35:53;2.73;;;0.97;;
69260;SDS011;56378;52.404;20.816;2022-10-20T15:38:19;4.50;;;0.90;;
69260;SDS011;56378;52.404;20.816;2022-10-20T15:40:45;4.43;;;0.93;;
69260;SDS011;56378;52.404;20.816;2022-10-20T15:43:11;3.47;;;0.80;;
69260;SDS011;56378;52.404;20.816;2022-10-20T15:45:42;7.60;;;1.10;;
69260;SDS011;56378;52.404;20.816;2022-10-20T15:48:09;3.08;;;0.85;;
69260;SDS011;56378;52.404;20.816;2022-10-20T15:50:36;3.08;;;0.77;;
69260;SDS011;56378;52.404;20.816;2022-10-20T15:53:02;3.97;;;1.00;;
69260;SDS011;56378;52.404;20.816;2022-10-20T15:55:32;5.22;;;1.00;;
69260;SDS011;56378;52.404;20.816;2022-10-20T15:58:01;2.78;;;1.00;;
69260;SDS011;56378;52.404;20.816;2022-10-20T16:00:27;2.53;;;0.80;;
69260;SDS011;56378;52.404;20.816;2022-10-20T16:02:53;2.60;;;0.90;;
69260;SDS011;56378;52.404;20.816;2022-10-20T16:05:20;3.75;;;1.15;;
69260;SDS011;56378;52.404;20.816;2022-10-20T16:07:47;4.03;;;0.90;;
69260;SDS011;56378;52.404;20.816;2022-10-20T16:10:17;3.23;;;1.00;;
69260;SDS011;56378;52.404;20.816;2022-10-20T16:12:43;3.72;;;1.00;;
69260;SDS011;56378;52.404;20.816;2022-10-20T16:15:09;3.13;;;1.02;;
69260;SDS011;56378;52.404;20.816;2022-10-20T16:17:35;6.43;;;1.13;;
69260;SDS011;56378;52.404;20.816;2022-10-20T16:20:01;3.95;;;1.30;;
69260;SDS011;56378;52.404;20.816;2022-10-20T16:22:28;5.03;;;1.40;;
69260;SDS011;56378;52.404;20.816;2022-10-20T16:24:54;14.23;;;5.03;;
69260;SDS011;56378;52.404;20.816;2022-10-20T16:27:20;12.35;;;2.90;;
69260;SDS011;56378;52.404;20.816;2022-10-20T16:29:46;5.90;;;1.77;;
69260;SDS011;56378;52.404;20.816;2022-10-20T16:32:13;5.38;;;1.60;;
69260;SDS011;56378;52.404;20.816;2022-10-20T16:34:39;7.30;;;2.63;;
69260;SDS011;56378;52.404;20.816;2022-10-20T16:37:05;5.78;;;1.90;;
69260;SDS011;56378;52.404;20.816;2022-10-20T16:39:30;6.57;;;1.90;;
69260;SDS011;56378;52.404;20.816;2022-10-20T16:41:56;7.45;;;2.20;;
69260;SDS011;56378;52.404;20.816;2022-10-20T16:44:22;6.30;;;2.13;;
69260;SDS011;56378;52.404;20.816;2022-10-20T16:46:47;11.77;;;4.40;;
69260;SDS011;56378;52.404;20.816;2022-10-20T16:49:13;10.32;;;3.88;;
69260;SDS011;56378;52.404;20.816;2022-10-20T16:51:39;8.80;;;3.60;;
69260;SDS011;56378;52.404;20.816;2022-10-20T16:54:04;7.40;;;2.80;;
69260;SDS011;56378;52.404;20.816;2022-10-20T16:56:30;7.53;;;3.50;;
69260;SDS011;56378;52.404;20.816;2022-10-20T16:58:56;15.30;;;2.92;;
69260;SDS011;56378;52.404;20.816;2022-10-20T17:01:21;7.23;;;2.80;;
69260;SDS011;56378;52.404;20.816;2022-10-20T17:03:48;15.52;;;5.40;;
69260;SDS011;56378;52.404;20.816;2022-10-20T17:06:16;17.35;;;7.03;;
69260;SDS011;56378;52.404;20.816;2022-10-20T17:08:45;19.20;;;6.07;;
69260;SDS011;56378;52.404;20.816;2022-10-20T17:11:12;11.67;;;4.73;;